sensor_id;sensor_type;location;lat;lon;timestamp;P1;durP1;ratioP1;P2;durP2;ratioP2
58990;SDS011;44781;53.444;14.476;2022-12-29T00:00:54;5.50;;;3.20;;
58990;SDS011;44781;53.444;14.476;2022-12-29T00:03:21;7.40;;;3.60;;
58990;SDS011;44781;53.444;14.476;2022-12-29T00:05:54;9.00;;;3.80;;
58990;SDS011;44781;53.444;14.476;2022-12-29T00:08:22;5.90;;;3.90;;
58990;SDS011;44781;53.444;14.476;2022-12-29T00:11:09;6.90;;;4.00;;
58990;SDS011;44781;53.444;14.476;2022-12-29T00:13:44;8.70;;;4.10;;
58990;SDS011;44781;53.444;14.476;2022-12-29T00:16:31;6.20;;;2.90;;
58990;SDS011;44781;53.444;14.476;2022-12-29T00:18:59;7.20;;;3.20;;
58990;SDS011;44781;53.444;14.476;2022-12-29T00:21:26;6.50;;;3.00;;
58990;SDS011;44781;53.444;14.476;2022-12-29T00:24:20;5.40;;;3.10;;
58990;SDS011;44781;53.444;14.476;2022-12-29T00:29:39;7.10;;;3.30;;
58990;SDS011;44781;53.444;14.476;2022-12-29T00:32:32;5.50;;;2.80;;
58990;SDS011;44781;53.444;14.476;2022-12-29T00:35:33;5.90;;;2.70;;
58990;SDS011;44781;53.444;14.476;2022-12-29T00:38:28;6.60;;;2.60;;
58990;SDS011;44781;53.444;14.476;2022-12-29T00:41:28;7.10;;;2.70;;
58990;SDS011;44781;53.444;14.476;2022-12-29T00:44:17;6.50;;;2.60;;
58990;SDS011;44781;53.444;14.476;2022-12-29T00:46:46;6.10;;;2.00;;
58990;SDS011;44781;53.444;14.476;2022-12-29T00:49:24;5.50;;;3.00;;
58990;SDS011;44781;53.444;14.476;2022-12-29T00:54:35;6.10;;;2.40;;
58990;SDS011;44781;53.444;14.476;2022-12-29T00:57:04;5.40;;;2.80;;
58990;SDS011;44781;53.444;14.476;2022-12-29T00:59:39;4.20;;;2.30;;
58990;SDS011;44781;53.444;14.476;2022-12-29T01:02:24;5.90;;;2.50;;
58990;SDS011;44781;53.444;14.476;2022-12-29T01:05:10;4.30;;;2.10;;
58990;SDS011;44781;53.444;14.476;2022-12-29T01:07:38;3.90;;;2.10;;
58990;SDS011;44781;53.444;14.476;2022-12-29T01:10:05;3.70;;;2.20;;
58990;SDS011;44781;53.444;14.476;2022-12-29T01:12:38;4.90;;;2.30;;
58990;SDS011;44781;53.444;14.476;2022-12-29T01:15:11;5.00;;;2.40;;
58990;SDS011;44781;53.444;14.476;2022-12-29T01:20:09;3.80;;;2.30;;
58990;SDS011;44781;53.444;14.476;2022-12-29T01:22:37;4.70;;;2.10;;
58990;SDS011;44781;53.444;14.476;2022-12-29T01:25:05;4.60;;;2.20;;
58990;SDS011;44781;53.444;14.476;2022-12-29T01:27:33;4.10;;;2.30;;
58990;SDS011;44781;53.444;14.476;2022-12-29T01:30:13;4.30;;;2.20;;
58990;SDS011;44781;53.444;14.476;2022-12-29T01:32:41;4.90;;;2.10;;
58990;SDS011;44781;53.444;14.476;2022-12-29T01:35:08;4.80;;;2.30;;
58990;SDS011;44781;53.444;14.476;2022-12-29T01:37:35;3.90;;;2.40;;
58990;SDS011;44781;53.444;14.476;2022-12-29T01:40:15;3.10;;;1.90;;
58990;SDS011;44781;53.444;14.476;2022-12-29T01:42:52;3.20;;;1.80;;
58990;SDS011;44781;53.444;14.476;2022-12-29T01:45:19;5.90;;;2.30;;
58990;SDS011;44781;53.444;14.476;2022-12-29T01:52:52;5.20;;;2.10;;
58990;SDS011;44781;53.444;14.476;2022-12-29T01:55:29;4.30;;;2.10;;
58990;SDS011;44781;53.444;14.476;2022-12-29T01:58:03;4.90;;;2.50;;
58990;SDS011;44781;53.444;14.476;2022-12-29T02:00:32;4.40;;;2.30;;
58990;SDS011;44781;53.444;14.476;2022-12-29T02:02:59;3.10;;;1.70;;
58990;SDS011;44781;53.444;14.476;2022-12-29T02:05:45;4.40;;;2.10;;
58990;SDS011;44781;53.444;14.476;2022-12-29T02:08:15;4.70;;;2.00;;
58990;SDS011;44781;53.444;14.476;2022-12-29T02:13:24;4.00;;;2.30;;
58990;SDS011;44781;53.444;14.476;2022-12-29T02:24:46;3.80;;;1.80;;
58990;SDS011;44781;53.444;14.476;2022-12-29T02:35:44;4.70;;;2.10;;
58990;SDS011;44781;53.444;14.476;2022-12-29T02:38:34;4.70;;;2.00;;
58990;SDS011;44781;53.444;14.476;2022-12-29T02:41:22;4.60;;;2.10;;
58990;SDS011;44781;53.444;14.476;2022-12-29T02:49:36;3.70;;;2.00;;
58990;SDS011;44781;53.444;14.476;2022-12-29T02:52:15;4.40;;;2.10;;
58990;SDS011;44781;53.444;14.476;2022-12-29T02:54:48;3.90;;;1.80;;
58990;SDS011;44781;53.444;14.476;2022-12-29T02:59:53;3.20;;;1.60;;
58990;SDS011;44781;53.444;14.476;2022-12-29T03:02:44;3.60;;;1.90;;
58990;SDS011;44781;53.444;14.476;2022-12-29T03:08:28;3.80;;;2.00;;
58990;SDS011;44781;53.444;14.476;2022-12-29T03:11:11;4.30;;;2.20;;
58990;SDS011;44781;53.444;14.476;2022-12-29T03:14:08;6.20;;;2.00;;
58990;SDS011;44781;53.444;14.476;2022-12-29T03:17:23;2.70;;;1.60;;
58990;SDS011;44781;53.444;14.476;2022-12-29T03:19:59;4.90;;;2.10;;
58990;SDS011;44781;53.444;14.476;2022-12-29T03:22:41;5.00;;;1.90;;
58990;SDS011;44781;53.444;14.476;2022-12-29T03:25:17;3.80;;;1.90;;
58990;SDS011;44781;53.444;14.476;2022-12-29T03:28:01;4.20;;;1.80;;
58990;SDS011;44781;53.444;14.476;2022-12-29T03:30:34;4.10;;;2.30;;
58990;SDS011;44781;53.444;14.476;2022-12-29T03:33:05;3.70;;;1.90;;
58990;SDS011;44781;53.444;14.476;2022-12-29T03:35:41;3.70;;;1.90;;
58990;SDS011;44781;53.444;14.476;2022-12-29T03:38:25;4.90;;;2.30;;
58990;SDS011;44781;53.444;14.476;2022-12-29T03:41:17;4.10;;;1.60;;
58990;SDS011;44781;53.444;14.476;2022-12-29T03:43:49;3.50;;;1.70;;
58990;SDS011;44781;53.444;14.476;2022-12-29T03:46:17;4.80;;;2.00;;
58990;SDS011;44781;53.444;14.476;2022-12-29T03:48:44;3.80;;;1.80;;
58990;SDS011;44781;53.444;14.476;2022-12-29T03:51:13;4.10;;;1.70;;
58990;SDS011;44781;53.444;14.476;2022-12-29T03:53:41;3.60;;;1.70;;
58990;SDS011;44781;53.444;14.476;2022-12-29T03:56:09;3.30;;;1.80;;
58990;SDS011;44781;53.444;14.476;2022-12-29T03:58:52;3.50;;;1.70;;
58990;SDS011;44781;53.444;14.476;2022-12-29T04:01:29;2.70;;;1.50;;
58990;SDS011;44781;53.444;14.476;2022-12-29T04:03:56;4.10;;;1.80;;
58990;SDS011;44781;53.444;14.476;2022-12-29T04:09:06;3.70;;;2.00;;
58990;SDS011;44781;53.444;14.476;2022-12-29T04:11:37;3.60;;;1.90;;
58990;SDS011;44781;53.444;14.476;2022-12-29T04:14:05;4.60;;;1.90;;
58990;SDS011;44781;53.444;14.476;2022-12-29T04:16:36;4.40;;;1.90;;
58990;SDS011;44781;53.444;14.476;2022-12-29T04:19:06;4.50;;;1.90;;
58990;SDS011;44781;53.444;14.476;2022-12-29T04:21:35;3.60;;;1.90;;
58990;SDS011;44781;53.444;14.476;2022-12-29T04:24:03;5.50;;;1.90;;
58990;SDS011;44781;53.444;14.476;2022-12-29T04:26:34;4.80;;;1.80;;
58990;SDS011;44781;53.444;14.476;2022-12-29T04:29:21;5.60;;;1.90;;
58990;SDS011;44781;53.444;14.476;2022-12-29T04:32:08;3.50;;;2.00;;
58990;SDS011;44781;53.444;14.476;2022-12-29T04:34:39;5.00;;;2.10;;
58990;SDS011;44781;53.444;14.476;2022-12-29T04:37:06;7.20;;;2.30;;
58990;SDS011;44781;53.444;14.476;2022-12-29T04:39:33;4.50;;;2.10;;
58990;SDS011;44781;53.444;14.476;2022-12-29T04:42:01;4.20;;;1.80;;
58990;SDS011;44781;53.444;14.476;2022-12-29T04:44:31;3.90;;;1.90;;
58990;SDS011;44781;53.444;14.476;2022-12-29T04:47:08;4.40;;;2.10;;
58990;SDS011;44781;53.444;14.476;2022-12-29T04:49:56;2.90;;;1.60;;
58990;SDS011;44781;53.444;14.476;2022-12-29T04:52:35;3.40;;;1.90;;
58990;SDS011;44781;53.444;14.476;2022-12-29T04:55:03;3.70;;;1.80;;
58990;SDS011;44781;53.444;14.476;2022-12-29T04:57:31;3.70;;;2.10;;
58990;SDS011;44781;53.444;14.476;2022-12-29T05:00:01;3.50;;;1.50;;
58990;SDS011;44781;53.444;14.476;2022-12-29T05:02:28;4.50;;;1.80;;
58990;SDS011;44781;53.444;14.476;2022-12-29T05:04:57;3.20;;;1.70;;
58990;SDS011;44781;53.444;14.476;2022-12-29T05:07:24;5.30;;;2.00;;
58990;SDS011;44781;53.444;14.476;2022-12-29T05:09:51;4.20;;;2.20;;
58990;SDS011;44781;53.444;14.476;2022-12-29T05:12:19;5.90;;;2.50;;
58990;SDS011;44781;53.444;14.476;2022-12-29T05:14:55;7.30;;;3.70;;
58990;SDS011;44781;53.444;14.476;2022-12-29T05:17:22;6.50;;;3.70;;
58990;SDS011;44781;53.444;14.476;2022-12-29T05:19:50;4.70;;;2.50;;
58990;SDS011;44781;53.444;14.476;2022-12-29T05:22:18;5.70;;;2.40;;
58990;SDS011;44781;53.444;14.476;2022-12-29T05:24:46;8.60;;;4.20;;
58990;SDS011;44781;53.444;14.476;2022-12-29T05:27:13;6.30;;;2.80;;
58990;SDS011;44781;53.444;14.476;2022-12-29T05:30:00;3.30;;;1.70;;
58990;SDS011;44781;53.444;14.476;2022-12-29T05:32:27;4.50;;;1.90;;
58990;SDS011;44781;53.444;14.476;2022-12-29T05:34:54;5.50;;;2.30;;
58990;SDS011;44781;53.444;14.476;2022-12-29T05:37:22;4.40;;;2.20;;
58990;SDS011;44781;53.444;14.476;2022-12-29T05:39:50;4.90;;;2.20;;
58990;SDS011;44781;53.444;14.476;2022-12-29T05:42:18;5.40;;;2.40;;
58990;SDS011;44781;53.444;14.476;2022-12-29T05:45:18;3.30;;;1.60;;
58990;SDS011;44781;53.444;14.476;2022-12-29T05:48:03;2.90;;;1.70;;
58990;SDS011;44781;53.444;14.476;2022-12-29T05:50:49;4.50;;;1.90;;
58990;SDS011;44781;53.444;14.476;2022-12-29T05:53:23;4.20;;;2.30;;
58990;SDS011;44781;53.444;14.476;2022-12-29T05:55:50;4.00;;;2.10;;
58990;SDS011;44781;53.444;14.476;2022-12-29T05:58:18;4.60;;;2.20;;
58990;SDS011;44781;53.444;14.476;2022-12-29T06:00:48;4.30;;;2.00;;
58990;SDS011;44781;53.444;14.476;2022-12-29T06:03:15;3.70;;;2.10;;
58990;SDS011;44781;53.444;14.476;2022-12-29T06:05:44;4.40;;;2.00;;
58990;SDS011;44781;53.444;14.476;2022-12-29T06:08:12;4.60;;;2.10;;
58990;SDS011;44781;53.444;14.476;2022-12-29T06:10:40;5.60;;;1.90;;
58990;SDS011;44781;53.444;14.476;2022-12-29T06:13:08;4.60;;;2.30;;
58990;SDS011;44781;53.444;14.476;2022-12-29T06:15:38;4.80;;;1.80;;
58990;SDS011;44781;53.444;14.476;2022-12-29T06:18:07;3.80;;;1.90;;
58990;SDS011;44781;53.444;14.476;2022-12-29T06:20:35;5.60;;;1.80;;
58990;SDS011;44781;53.444;14.476;2022-12-29T06:23:04;4.80;;;1.90;;
58990;SDS011;44781;53.444;14.476;2022-12-29T06:25:32;3.70;;;2.00;;
58990;SDS011;44781;53.444;14.476;2022-12-29T06:28:00;3.10;;;1.60;;
58990;SDS011;44781;53.444;14.476;2022-12-29T06:30:28;3.80;;;2.10;;
58990;SDS011;44781;53.444;14.476;2022-12-29T06:32:57;3.50;;;1.70;;
58990;SDS011;44781;53.444;14.476;2022-12-29T06:35:25;3.60;;;1.80;;
58990;SDS011;44781;53.444;14.476;2022-12-29T06:37:53;3.50;;;2.10;;
58990;SDS011;44781;53.444;14.476;2022-12-29T06:40:20;3.60;;;1.80;;
58990;SDS011;44781;53.444;14.476;2022-12-29T06:43:12;3.60;;;1.60;;
58990;SDS011;44781;53.444;14.476;2022-12-29T06:46:00;3.70;;;1.90;;
58990;SDS011;44781;53.444;14.476;2022-12-29T06:48:27;4.40;;;2.10;;
58990;SDS011;44781;53.444;14.476;2022-12-29T06:50:54;3.20;;;1.90;;
58990;SDS011;44781;53.444;14.476;2022-12-29T06:53:22;3.20;;;1.90;;
58990;SDS011;44781;53.444;14.476;2022-12-29T06:55:50;3.90;;;2.00;;
58990;SDS011;44781;53.444;14.476;2022-12-29T06:58:17;6.00;;;2.20;;
58990;SDS011;44781;53.444;14.476;2022-12-29T07:00:44;3.90;;;2.10;;
58990;SDS011;44781;53.444;14.476;2022-12-29T07:03:12;5.50;;;2.10;;
58990;SDS011;44781;53.444;14.476;2022-12-29T07:05:39;4.90;;;2.50;;
58990;SDS011;44781;53.444;14.476;2022-12-29T07:08:07;5.20;;;2.50;;
58990;SDS011;44781;53.444;14.476;2022-12-29T07:10:35;4.40;;;2.20;;
58990;SDS011;44781;53.444;14.476;2022-12-29T07:13:02;4.20;;;2.30;;
58990;SDS011;44781;53.444;14.476;2022-12-29T07:15:29;5.00;;;2.60;;
58990;SDS011;44781;53.444;14.476;2022-12-29T07:17:56;3.30;;;2.00;;
58990;SDS011;44781;53.444;14.476;2022-12-29T07:20:24;4.80;;;2.20;;
58990;SDS011;44781;53.444;14.476;2022-12-29T07:22:51;4.70;;;2.20;;
58990;SDS011;44781;53.444;14.476;2022-12-29T07:25:19;5.10;;;2.20;;
58990;SDS011;44781;53.444;14.476;2022-12-29T07:27:46;4.90;;;2.40;;
58990;SDS011;44781;53.444;14.476;2022-12-29T07:30:14;4.40;;;2.30;;
58990;SDS011;44781;53.444;14.476;2022-12-29T07:32:43;3.90;;;2.20;;
58990;SDS011;44781;53.444;14.476;2022-12-29T07:35:10;4.00;;;2.40;;
58990;SDS011;44781;53.444;14.476;2022-12-29T07:37:37;5.50;;;2.30;;
58990;SDS011;44781;53.444;14.476;2022-12-29T07:40:05;3.90;;;1.90;;
58990;SDS011;44781;53.444;14.476;2022-12-29T07:42:33;4.70;;;1.90;;
58990;SDS011;44781;53.444;14.476;2022-12-29T07:45:00;3.60;;;2.20;;
58990;SDS011;44781;53.444;14.476;2022-12-29T07:47:48;5.70;;;2.30;;
58990;SDS011;44781;53.444;14.476;2022-12-29T07:50:16;3.90;;;2.00;;
58990;SDS011;44781;53.444;14.476;2022-12-29T07:52:43;4.40;;;2.20;;
58990;SDS011;44781;53.444;14.476;2022-12-29T07:55:14;6.50;;;2.80;;
58990;SDS011;44781;53.444;14.476;2022-12-29T07:57:42;7.40;;;2.60;;
58990;SDS011;44781;53.444;14.476;2022-12-29T08:00:09;5.10;;;2.40;;
58990;SDS011;44781;53.444;14.476;2022-12-29T08:02:40;5.70;;;2.40;;
58990;SDS011;44781;53.444;14.476;2022-12-29T08:05:07;4.60;;;2.30;;
58990;SDS011;44781;53.444;14.476;2022-12-29T08:07:34;5.30;;;2.30;;
58990;SDS011;44781;53.444;14.476;2022-12-29T08:10:02;7.80;;;3.50;;
58990;SDS011;44781;53.444;14.476;2022-12-29T08:12:30;6.30;;;2.70;;
58990;SDS011;44781;53.444;14.476;2022-12-29T08:14:57;11.60;;;4.50;;
58990;SDS011;44781;53.444;14.476;2022-12-29T08:17:24;9.40;;;4.10;;
58990;SDS011;44781;53.444;14.476;2022-12-29T08:19:51;9.70;;;4.40;;
58990;SDS011;44781;53.444;14.476;2022-12-29T08:22:19;8.60;;;3.90;;
58990;SDS011;44781;53.444;14.476;2022-12-29T08:24:46;6.30;;;2.50;;
58990;SDS011;44781;53.444;14.476;2022-12-29T08:27:13;7.20;;;3.00;;
58990;SDS011;44781;53.444;14.476;2022-12-29T08:29:41;5.50;;;2.70;;
58990;SDS011;44781;53.444;14.476;2022-12-29T08:32:08;8.30;;;4.60;;
58990;SDS011;44781;53.444;14.476;2022-12-29T08:34:36;7.90;;;3.40;;
58990;SDS011;44781;53.444;14.476;2022-12-29T08:37:03;7.40;;;3.50;;
58990;SDS011;44781;53.444;14.476;2022-12-29T08:39:30;5.70;;;3.20;;
58990;SDS011;44781;53.444;14.476;2022-12-29T08:41:58;6.70;;;3.10;;
58990;SDS011;44781;53.444;14.476;2022-12-29T08:44:25;5.50;;;2.60;;
58990;SDS011;44781;53.444;14.476;2022-12-29T08:46:53;5.80;;;2.80;;
58990;SDS011;44781;53.444;14.476;2022-12-29T08:49:20;4.20;;;2.40;;
58990;SDS011;44781;53.444;14.476;2022-12-29T08:51:48;4.80;;;2.50;;
58990;SDS011;44781;53.444;14.476;2022-12-29T08:54:15;4.40;;;2.30;;
58990;SDS011;44781;53.444;14.476;2022-12-29T08:56:42;4.70;;;2.30;;
58990;SDS011;44781;53.444;14.476;2022-12-29T08:59:09;4.20;;;2.20;;
58990;SDS011;44781;53.444;14.476;2022-12-29T09:01:38;4.20;;;2.20;;
58990;SDS011;44781;53.444;14.476;2022-12-29T09:04:07;4.70;;;2.50;;
58990;SDS011;44781;53.444;14.476;2022-12-29T09:06:35;4.40;;;2.20;;
58990;SDS011;44781;53.444;14.476;2022-12-29T09:09:02;6.80;;;2.60;;
58990;SDS011;44781;53.444;14.476;2022-12-29T09:11:29;4.40;;;2.40;;
58990;SDS011;44781;53.444;14.476;2022-12-29T09:13:56;6.20;;;3.00;;
58990;SDS011;44781;53.444;14.476;2022-12-29T09:16:24;6.10;;;2.90;;
58990;SDS011;44781;53.444;14.476;2022-12-29T09:18:51;5.20;;;2.40;;
58990;SDS011;44781;53.444;14.476;2022-12-29T09:21:19;6.40;;;2.70;;
58990;SDS011;44781;53.444;14.476;2022-12-29T09:23:47;3.90;;;2.50;;
58990;SDS011;44781;53.444;14.476;2022-12-29T09:26:15;5.40;;;3.20;;
58990;SDS011;44781;53.444;14.476;2022-12-29T09:28:42;5.00;;;3.00;;
58990;SDS011;44781;53.444;14.476;2022-12-29T09:31:12;5.30;;;2.70;;
58990;SDS011;44781;53.444;14.476;2022-12-29T09:33:39;4.40;;;2.50;;
58990;SDS011;44781;53.444;14.476;2022-12-29T09:36:08;4.60;;;2.20;;
58990;SDS011;44781;53.444;14.476;2022-12-29T09:38:35;5.90;;;2.70;;
58990;SDS011;44781;53.444;14.476;2022-12-29T09:46:44;3.50;;;1.80;;
58990;SDS011;44781;53.444;14.476;2022-12-29T09:52:00;3.40;;;1.60;;
58990;SDS011;44781;53.444;14.476;2022-12-29T09:54:36;3.80;;;1.70;;
58990;SDS011;44781;53.444;14.476;2022-12-29T10:03:45;3.10;;;1.60;;
58990;SDS011;44781;53.444;14.476;2022-12-29T10:06:17;2.50;;;1.30;;
58990;SDS011;44781;53.444;14.476;2022-12-29T10:08:57;4.30;;;1.80;;
58990;SDS011;44781;53.444;14.476;2022-12-29T10:25:34;2.60;;;1.60;;
58990;SDS011;44781;53.444;14.476;2022-12-29T10:30:51;3.60;;;1.70;;
58990;SDS011;44781;53.444;14.476;2022-12-29T10:33:29;5.40;;;1.90;;
58990;SDS011;44781;53.444;14.476;2022-12-29T10:36:15;4.00;;;1.80;;
58990;SDS011;44781;53.444;14.476;2022-12-29T10:38:48;3.80;;;1.80;;
58990;SDS011;44781;53.444;14.476;2022-12-29T10:41:42;4.20;;;1.50;;
58990;SDS011;44781;53.444;14.476;2022-12-29T10:44:16;3.60;;;1.60;;
58990;SDS011;44781;53.444;14.476;2022-12-29T10:46:55;2.00;;;1.20;;
58990;SDS011;44781;53.444;14.476;2022-12-29T10:49:50;3.80;;;1.50;;
58990;SDS011;44781;53.444;14.476;2022-12-29T10:52:48;3.20;;;1.30;;
58990;SDS011;44781;53.444;14.476;2022-12-29T10:55:27;3.10;;;1.40;;
58990;SDS011;44781;53.444;14.476;2022-12-29T10:58:01;3.00;;;1.40;;
58990;SDS011;44781;53.444;14.476;2022-12-29T11:00:32;4.90;;;1.90;;
58990;SDS011;44781;53.444;14.476;2022-12-29T11:05:59;2.80;;;1.50;;
58990;SDS011;44781;53.444;14.476;2022-12-29T11:08:35;3.20;;;1.50;;
58990;SDS011;44781;53.444;14.476;2022-12-29T11:11:10;4.10;;;1.50;;
58990;SDS011;44781;53.444;14.476;2022-12-29T11:13:51;5.70;;;1.70;;
58990;SDS011;44781;53.444;14.476;2022-12-29T11:16:28;3.20;;;1.50;;
58990;SDS011;44781;53.444;14.476;2022-12-29T11:18:58;3.60;;;1.40;;
58990;SDS011;44781;53.444;14.476;2022-12-29T11:21:37;3.50;;;1.40;;
58990;SDS011;44781;53.444;14.476;2022-12-29T11:24:29;3.20;;;1.40;;
58990;SDS011;44781;53.444;14.476;2022-12-29T11:27:13;3.90;;;1.40;;
58990;SDS011;44781;53.444;14.476;2022-12-29T11:29:44;2.70;;;1.30;;
58990;SDS011;44781;53.444;14.476;2022-12-29T11:32:13;2.80;;;1.50;;
58990;SDS011;44781;53.444;14.476;2022-12-29T11:34:46;4.00;;;1.40;;
58990;SDS011;44781;53.444;14.476;2022-12-29T11:37:27;3.30;;;1.70;;
58990;SDS011;44781;53.444;14.476;2022-12-29T11:40:02;3.10;;;1.50;;
58990;SDS011;44781;53.444;14.476;2022-12-29T11:42:34;3.80;;;1.40;;
58990;SDS011;44781;53.444;14.476;2022-12-29T11:45:05;4.00;;;1.90;;
58990;SDS011;44781;53.444;14.476;2022-12-29T11:47:50;3.30;;;1.70;;
58990;SDS011;44781;53.444;14.476;2022-12-29T11:50:25;2.60;;;1.50;;
58990;SDS011;44781;53.444;14.476;2022-12-29T11:55:37;3.50;;;1.40;;
58990;SDS011;44781;53.444;14.476;2022-12-29T11:58:05;4.60;;;1.80;;
58990;SDS011;44781;53.444;14.476;2022-12-29T12:00:42;3.00;;;1.50;;
58990;SDS011;44781;53.444;14.476;2022-12-29T12:03:14;3.60;;;1.50;;
58990;SDS011;44781;53.444;14.476;2022-12-29T12:05:48;3.30;;;1.40;;
58990;SDS011;44781;53.444;14.476;2022-12-29T12:11:14;2.80;;;1.20;;
58990;SDS011;44781;53.444;14.476;2022-12-29T12:14:02;2.70;;;1.30;;
58990;SDS011;44781;53.444;14.476;2022-12-29T12:17:04;2.20;;;1.10;;
58990;SDS011;44781;53.444;14.476;2022-12-29T12:19:43;3.20;;;1.20;;
58990;SDS011;44781;53.444;14.476;2022-12-29T12:22:35;3.80;;;1.40;;
58990;SDS011;44781;53.444;14.476;2022-12-29T12:27:51;3.50;;;1.30;;
58990;SDS011;44781;53.444;14.476;2022-12-29T12:30:28;2.60;;;1.20;;
58990;SDS011;44781;53.444;14.476;2022-12-29T12:41:13;1.90;;;1.00;;
58990;SDS011;44781;53.444;14.476;2022-12-29T13:04:05;3.70;;;1.20;;
58990;SDS011;44781;53.444;14.476;2022-12-29T13:18:48;4.40;;;1.60;;
58990;SDS011;44781;53.444;14.476;2022-12-29T13:21:44;4.30;;;1.80;;
58990;SDS011;44781;53.444;14.476;2022-12-29T13:24:28;5.40;;;2.30;;
58990;SDS011;44781;53.444;14.476;2022-12-29T13:30:10;4.50;;;2.20;;
58990;SDS011;44781;53.444;14.476;2022-12-29T13:38:36;8.30;;;3.60;;
58990;SDS011;44781;53.444;14.476;2022-12-29T13:41:23;8.00;;;4.20;;
58990;SDS011;44781;53.444;14.476;2022-12-29T13:43:55;7.00;;;3.60;;
58990;SDS011;44781;53.444;14.476;2022-12-29T13:46:35;7.70;;;3.60;;
58990;SDS011;44781;53.444;14.476;2022-12-29T13:49:14;6.90;;;3.50;;
58990;SDS011;44781;53.444;14.476;2022-12-29T13:52:09;5.90;;;3.00;;
58990;SDS011;44781;53.444;14.476;2022-12-29T14:03:44;5.50;;;2.20;;
58990;SDS011;44781;53.444;14.476;2022-12-29T14:08:57;5.50;;;2.20;;
58990;SDS011;44781;53.444;14.476;2022-12-29T14:11:33;4.40;;;2.30;;
58990;SDS011;44781;53.444;14.476;2022-12-29T14:14:14;6.00;;;1.80;;
58990;SDS011;44781;53.444;14.476;2022-12-29T14:16:48;3.80;;;1.80;;
58990;SDS011;44781;53.444;14.476;2022-12-29T14:21:55;5.70;;;2.30;;
58990;SDS011;44781;53.444;14.476;2022-12-29T14:34:58;4.20;;;2.20;;
58990;SDS011;44781;53.444;14.476;2022-12-29T14:37:28;5.70;;;2.50;;
58990;SDS011;44781;53.444;14.476;2022-12-29T14:42:46;3.20;;;1.70;;
58990;SDS011;44781;53.444;14.476;2022-12-29T14:47:45;5.10;;;1.90;;
58990;SDS011;44781;53.444;14.476;2022-12-29T14:53:03;5.50;;;2.40;;
58990;SDS011;44781;53.444;14.476;2022-12-29T14:58:19;4.90;;;2.40;;
58990;SDS011;44781;53.444;14.476;2022-12-29T15:00:53;4.10;;;2.20;;
58990;SDS011;44781;53.444;14.476;2022-12-29T15:03:48;5.50;;;2.50;;
58990;SDS011;44781;53.444;14.476;2022-12-29T15:06:19;6.60;;;3.10;;
58990;SDS011;44781;53.444;14.476;2022-12-29T15:14:01;4.70;;;2.40;;
58990;SDS011;44781;53.444;14.476;2022-12-29T15:16:33;5.40;;;2.10;;
58990;SDS011;44781;53.444;14.476;2022-12-29T15:19:03;7.60;;;3.80;;
58990;SDS011;44781;53.444;14.476;2022-12-29T15:21:47;6.90;;;3.40;;
58990;SDS011;44781;53.444;14.476;2022-12-29T15:24:14;6.50;;;3.60;;
58990;SDS011;44781;53.444;14.476;2022-12-29T15:26:42;8.10;;;3.70;;
58990;SDS011;44781;53.444;14.476;2022-12-29T15:29:30;8.30;;;4.60;;
58990;SDS011;44781;53.444;14.476;2022-12-29T15:34:50;7.40;;;4.00;;
58990;SDS011;44781;53.444;14.476;2022-12-29T15:37:31;9.90;;;5.20;;
58990;SDS011;44781;53.444;14.476;2022-12-29T15:40:00;9.90;;;5.40;;
58990;SDS011;44781;53.444;14.476;2022-12-29T15:42:33;9.70;;;4.60;;
58990;SDS011;44781;53.444;14.476;2022-12-29T15:45:14;8.80;;;4.70;;
58990;SDS011;44781;53.444;14.476;2022-12-29T15:51:57;6.70;;;3.80;;
58990;SDS011;44781;53.444;14.476;2022-12-29T15:54:26;8.10;;;4.70;;
58990;SDS011;44781;53.444;14.476;2022-12-29T16:01:59;7.70;;;3.70;;
58990;SDS011;44781;53.444;14.476;2022-12-29T16:04:29;5.50;;;3.20;;
58990;SDS011;44781;53.444;14.476;2022-12-29T16:07:03;6.00;;;2.80;;
58990;SDS011;44781;53.444;14.476;2022-12-29T16:09:36;6.90;;;3.40;;
58990;SDS011;44781;53.444;14.476;2022-12-29T16:12:19;6.40;;;3.30;;
58990;SDS011;44781;53.444;14.476;2022-12-29T16:14:59;6.80;;;3.70;;
58990;SDS011;44781;53.444;14.476;2022-12-29T16:17:33;7.00;;;3.20;;
58990;SDS011;44781;53.444;14.476;2022-12-29T16:20:19;6.90;;;3.60;;
58990;SDS011;44781;53.444;14.476;2022-12-29T16:22:58;6.10;;;3.20;;
58990;SDS011;44781;53.444;14.476;2022-12-29T16:25:48;6.40;;;3.20;;
58990;SDS011;44781;53.444;14.476;2022-12-29T16:28:21;10.20;;;4.20;;
58990;SDS011;44781;53.444;14.476;2022-12-29T16:31:23;6.20;;;2.70;;
58990;SDS011;44781;53.444;14.476;2022-12-29T16:34:09;7.40;;;3.80;;
58990;SDS011;44781;53.444;14.476;2022-12-29T16:36:56;9.30;;;4.40;;
58990;SDS011;44781;53.444;14.476;2022-12-29T16:41:57;8.00;;;4.40;;
58990;SDS011;44781;53.444;14.476;2022-12-29T16:44:25;11.00;;;5.20;;
58990;SDS011;44781;53.444;14.476;2022-12-29T16:49:32;7.10;;;3.70;;
58990;SDS011;44781;53.444;14.476;2022-12-29T16:52:00;8.00;;;3.60;;
58990;SDS011;44781;53.444;14.476;2022-12-29T16:54:30;8.00;;;4.60;;
58990;SDS011;44781;53.444;14.476;2022-12-29T16:57:03;8.20;;;3.80;;
58990;SDS011;44781;53.444;14.476;2022-12-29T16:59:34;6.30;;;3.40;;
58990;SDS011;44781;53.444;14.476;2022-12-29T17:02:15;4.20;;;2.40;;
58990;SDS011;44781;53.444;14.476;2022-12-29T17:04:47;4.70;;;2.50;;
58990;SDS011;44781;53.444;14.476;2022-12-29T17:07:20;7.50;;;4.00;;
58990;SDS011;44781;53.444;14.476;2022-12-29T17:09:49;6.20;;;3.00;;
58990;SDS011;44781;53.444;14.476;2022-12-29T17:12:17;5.60;;;2.30;;
58990;SDS011;44781;53.444;14.476;2022-12-29T17:14:51;6.30;;;3.00;;
58990;SDS011;44781;53.444;14.476;2022-12-29T17:17:29;5.80;;;2.50;;
58990;SDS011;44781;53.444;14.476;2022-12-29T17:20:00;3.30;;;1.80;;
58990;SDS011;44781;53.444;14.476;2022-12-29T17:22:32;4.40;;;2.30;;
58990;SDS011;44781;53.444;14.476;2022-12-29T17:25:00;4.80;;;2.20;;
58990;SDS011;44781;53.444;14.476;2022-12-29T17:30:19;6.00;;;2.80;;
58990;SDS011;44781;53.444;14.476;2022-12-29T17:32:52;4.20;;;2.20;;
58990;SDS011;44781;53.444;14.476;2022-12-29T17:37:48;6.40;;;2.70;;
58990;SDS011;44781;53.444;14.476;2022-12-29T17:40:19;7.90;;;3.50;;
58990;SDS011;44781;53.444;14.476;2022-12-29T17:42:53;4.80;;;2.20;;
58990;SDS011;44781;53.444;14.476;2022-12-29T17:45:23;7.30;;;3.80;;
58990;SDS011;44781;53.444;14.476;2022-12-29T17:47:53;4.50;;;2.00;;
58990;SDS011;44781;53.444;14.476;2022-12-29T17:50:25;4.10;;;1.80;;
58990;SDS011;44781;53.444;14.476;2022-12-29T17:53:00;4.90;;;1.70;;
58990;SDS011;44781;53.444;14.476;2022-12-29T17:55:29;4.40;;;2.00;;
58990;SDS011;44781;53.444;14.476;2022-12-29T17:57:57;5.60;;;1.50;;
58990;SDS011;44781;53.444;14.476;2022-12-29T18:00:26;4.40;;;2.00;;
58990;SDS011;44781;53.444;14.476;2022-12-29T18:02:56;5.50;;;2.20;;
58990;SDS011;44781;53.444;14.476;2022-12-29T18:05:25;5.20;;;2.40;;
58990;SDS011;44781;53.444;14.476;2022-12-29T18:07:55;3.60;;;2.10;;
58990;SDS011;44781;53.444;14.476;2022-12-29T18:10:26;3.40;;;2.00;;
58990;SDS011;44781;53.444;14.476;2022-12-29T18:12:57;6.80;;;2.70;;
58990;SDS011;44781;53.444;14.476;2022-12-29T18:15:26;5.00;;;1.80;;
58990;SDS011;44781;53.444;14.476;2022-12-29T18:20:40;5.30;;;2.40;;
58990;SDS011;44781;53.444;14.476;2022-12-29T18:23:19;5.10;;;2.00;;
58990;SDS011;44781;53.444;14.476;2022-12-29T18:28:54;4.90;;;1.60;;
58990;SDS011;44781;53.444;14.476;2022-12-29T18:31:24;4.60;;;2.10;;
58990;SDS011;44781;53.444;14.476;2022-12-29T18:36:30;6.10;;;2.00;;
58990;SDS011;44781;53.444;14.476;2022-12-29T18:39:13;5.90;;;2.10;;
58990;SDS011;44781;53.444;14.476;2022-12-29T18:41:41;5.20;;;2.50;;